sensor_id;sensor_type;location;lat;lon;timestamp;P1;durP1;ratioP1;P2;durP2;ratioP2
12312;SDS011;6220;53.580;9.758;2023-08-07T00:01:41;5.73;;;2.30;;
12312;SDS011;6220;53.580;9.758;2023-08-07T00:04:06;3.57;;;2.20;;
12312;SDS011;6220;53.580;9.758;2023-08-07T00:06:32;4.20;;;3.53;;
12312;SDS011;6220;53.580;9.758;2023-08-07T00:08:57;6.07;;;3.07;;
12312;SDS011;6220;53.580;9.758;2023-08-07T00:11:22;4.47;;;2.10;;
12312;SDS011;6220;53.580;9.758;2023-08-07T00:13:48;3.37;;;2.00;;
12312;SDS011;6220;53.580;9.758;2023-08-07T00:16:13;3.77;;;2.50;;
12312;SDS011;6220;53.580;9.758;2023-08-07T00:18:39;6.43;;;2.00;;
12312;SDS011;6220;53.580;9.758;2023-08-07T00:21:04;5.40;;;2.30;;
12312;SDS011;6220;53.580;9.758;2023-08-07T00:23:29;2.83;;;2.00;;
12312;SDS011;6220;53.580;9.758;2023-08-07T00:25:55;3.67;;;1.93;;
12312;SDS011;6220;53.580;9.758;2023-08-07T00:28:20;2.90;;;2.20;;
12312;SDS011;6220;53.580;9.758;2023-08-07T00:30:45;3.50;;;2.03;;
12312;SDS011;6220;53.580;9.758;2023-08-07T00:33:11;2.33;;;2.10;;
12312;SDS011;6220;53.580;9.758;2023-08-07T00:35:36;5.43;;;2.30;;
12312;SDS011;6220;53.580;9.758;2023-08-07T00:38:01;3.80;;;2.10;;
12312;SDS011;6220;53.580;9.758;2023-08-07T00:40:27;4.43;;;2.30;;
12312;SDS011;6220;53.580;9.758;2023-08-07T00:42:52;2.53;;;2.00;;
12312;SDS011;6220;53.580;9.758;2023-08-07T00:45:18;8.40;;;2.20;;
12312;SDS011;6220;53.580;9.758;2023-08-07T00:47:43;3.83;;;2.03;;
12312;SDS011;6220;53.580;9.758;2023-08-07T00:50:09;2.20;;;2.00;;
12312;SDS011;6220;53.580;9.758;2023-08-07T00:52:36;2.23;;;2.00;;
12312;SDS011;6220;53.580;9.758;2023-08-07T00:55:02;2.77;;;2.00;;
12312;SDS011;6220;53.580;9.758;2023-08-07T00:57:28;3.43;;;1.97;;
12312;SDS011;6220;53.580;9.758;2023-08-07T00:59:54;4.33;;;2.10;;
12312;SDS011;6220;53.580;9.758;2023-08-07T01:05:47;2.67;;;1.93;;
12312;SDS011;6220;53.580;9.758;2023-08-07T01:08:13;3.83;;;2.10;;
12312;SDS011;6220;53.580;9.758;2023-08-07T01:10:51;4.50;;;2.30;;
12312;SDS011;6220;53.580;9.758;2023-08-07T01:13:27;5.57;;;2.13;;
12312;SDS011;6220;53.580;9.758;2023-08-07T01:15:55;3.10;;;1.97;;
12312;SDS011;6220;53.580;9.758;2023-08-07T01:18:22;4.57;;;2.20;;
12312;SDS011;6220;53.580;9.758;2023-08-07T01:20:47;2.57;;;2.20;;
12312;SDS011;6220;53.580;9.758;2023-08-07T01:23:13;2.83;;;2.10;;
12312;SDS011;6220;53.580;9.758;2023-08-07T01:25:38;3.97;;;2.30;;
12312;SDS011;6220;53.580;9.758;2023-08-07T01:30:43;3.93;;;1.80;;
12312;SDS011;6220;53.580;9.758;2023-08-07T01:33:29;5.57;;;2.30;;
12312;SDS011;6220;53.580;9.758;2023-08-07T01:35:57;2.37;;;2.10;;
12312;SDS011;6220;53.580;9.758;2023-08-07T01:38:24;2.60;;;2.03;;
12312;SDS011;6220;53.580;9.758;2023-08-07T01:40:51;4.43;;;2.30;;
12312;SDS011;6220;53.580;9.758;2023-08-07T01:43:17;3.87;;;1.93;;
12312;SDS011;6220;53.580;9.758;2023-08-07T01:45:44;3.47;;;2.13;;
12312;SDS011;6220;53.580;9.758;2023-08-07T01:48:09;3.97;;;1.90;;
12312;SDS011;6220;53.580;9.758;2023-08-07T01:50:35;5.90;;;2.07;;
12312;SDS011;6220;53.580;9.758;2023-08-07T01:53:01;4.30;;;2.00;;
12312;SDS011;6220;53.580;9.758;2023-08-07T01:55:28;3.60;;;2.10;;
12312;SDS011;6220;53.580;9.758;2023-08-07T01:57:54;2.63;;;1.87;;
12312;SDS011;6220;53.580;9.758;2023-08-07T02:00:20;5.60;;;2.13;;
12312;SDS011;6220;53.580;9.758;2023-08-07T02:02:45;7.13;;;2.20;;
12312;SDS011;6220;53.580;9.758;2023-08-07T02:05:12;3.60;;;1.83;;
12312;SDS011;6220;53.580;9.758;2023-08-07T02:07:37;3.53;;;2.17;;
12312;SDS011;6220;53.580;9.758;2023-08-07T02:10:04;4.07;;;2.87;;
12312;SDS011;6220;53.580;9.758;2023-08-07T02:12:30;4.60;;;3.50;;
12312;SDS011;6220;53.580;9.758;2023-08-07T02:14:57;2.50;;;1.80;;
12312;SDS011;6220;53.580;9.758;2023-08-07T02:17:24;6.80;;;2.27;;
12312;SDS011;6220;53.580;9.758;2023-08-07T02:19:49;3.27;;;1.90;;
12312;SDS011;6220;53.580;9.758;2023-08-07T02:22:15;3.20;;;1.87;;
12312;SDS011;6220;53.580;9.758;2023-08-07T02:24:40;4.13;;;1.90;;
12312;SDS011;6220;53.580;9.758;2023-08-07T02:27:06;3.60;;;1.50;;
12312;SDS011;6220;53.580;9.758;2023-08-07T02:29:31;4.83;;;2.07;;
12312;SDS011;6220;53.580;9.758;2023-08-07T02:31:59;3.13;;;1.70;;
12312;SDS011;6220;53.580;9.758;2023-08-07T02:34:28;3.27;;;1.67;;
12312;SDS011;6220;53.580;9.758;2023-08-07T02:36:53;4.03;;;1.80;;
12312;SDS011;6220;53.580;9.758;2023-08-07T02:39:19;2.80;;;1.60;;
12312;SDS011;6220;53.580;9.758;2023-08-07T02:41:44;3.70;;;1.80;;
12312;SDS011;6220;53.580;9.758;2023-08-07T02:44:09;4.87;;;1.90;;
12312;SDS011;6220;53.580;9.758;2023-08-07T02:46:35;1.80;;;1.60;;
12312;SDS011;6220;53.580;9.758;2023-08-07T02:49:01;5.00;;;1.90;;
12312;SDS011;6220;53.580;9.758;2023-08-07T02:51:27;4.10;;;1.67;;
12312;SDS011;6220;53.580;9.758;2023-08-07T02:53:52;2.07;;;1.40;;
12312;SDS011;6220;53.580;9.758;2023-08-07T02:56:17;5.27;;;1.73;;
12312;SDS011;6220;53.580;9.758;2023-08-07T02:58:43;2.93;;;1.63;;
12312;SDS011;6220;53.580;9.758;2023-08-07T03:01:08;4.70;;;1.77;;
12312;SDS011;6220;53.580;9.758;2023-08-07T03:03:34;3.17;;;1.80;;
12312;SDS011;6220;53.580;9.758;2023-08-07T03:05:59;4.47;;;1.40;;
12312;SDS011;6220;53.580;9.758;2023-08-07T03:08:25;5.07;;;1.53;;
12312;SDS011;6220;53.580;9.758;2023-08-07T03:10:54;3.63;;;1.70;;
12312;SDS011;6220;53.580;9.758;2023-08-07T03:13:26;1.87;;;1.67;;
12312;SDS011;6220;53.580;9.758;2023-08-07T03:16:01;4.00;;;2.03;;
12312;SDS011;6220;53.580;9.758;2023-08-07T03:18:28;3.23;;;1.90;;
12312;SDS011;6220;53.580;9.758;2023-08-07T03:20:54;2.37;;;1.40;;
12312;SDS011;6220;53.580;9.758;2023-08-07T03:23:21;2.87;;;1.70;;
12312;SDS011;6220;53.580;9.758;2023-08-07T03:25:47;2.63;;;1.57;;
12312;SDS011;6220;53.580;9.758;2023-08-07T03:28:12;4.97;;;2.03;;
12312;SDS011;6220;53.580;9.758;2023-08-07T03:30:38;6.17;;;1.70;;
12312;SDS011;6220;53.580;9.758;2023-08-07T03:33:03;3.53;;;1.67;;
12312;SDS011;6220;53.580;9.758;2023-08-07T03:35:30;3.33;;;1.90;;
12312;SDS011;6220;53.580;9.758;2023-08-07T03:37:55;5.47;;;1.77;;
12312;SDS011;6220;53.580;9.758;2023-08-07T03:40:20;3.53;;;1.70;;
12312;SDS011;6220;53.580;9.758;2023-08-07T03:42:46;3.43;;;1.93;;
12312;SDS011;6220;53.580;9.758;2023-08-07T03:45:11;3.40;;;1.90;;
12312;SDS011;6220;53.580;9.758;2023-08-07T03:47:36;3.43;;;1.70;;
12312;SDS011;6220;53.580;9.758;2023-08-07T03:50:02;3.33;;;1.80;;
12312;SDS011;6220;53.580;9.758;2023-08-07T03:52:27;2.00;;;1.60;;
12312;SDS011;6220;53.580;9.758;2023-08-07T03:54:52;4.13;;;1.60;;
12312;SDS011;6220;53.580;9.758;2023-08-07T03:57:18;3.43;;;1.80;;
12312;SDS011;6220;53.580;9.758;2023-08-07T03:59:43;2.23;;;1.80;;
12312;SDS011;6220;53.580;9.758;2023-08-07T04:02:09;4.03;;;1.83;;
12312;SDS011;6220;53.580;9.758;2023-08-07T04:04:34;3.03;;;1.97;;
12312;SDS011;6220;53.580;9.758;2023-08-07T04:06:59;3.80;;;1.93;;
12312;SDS011;6220;53.580;9.758;2023-08-07T04:09:25;3.87;;;1.93;;
12312;SDS011;6220;53.580;9.758;2023-08-07T04:11:50;5.77;;;2.30;;
12312;SDS011;6220;53.580;9.758;2023-08-07T04:14:16;2.97;;;1.70;;
12312;SDS011;6220;53.580;9.758;2023-08-07T04:16:41;4.37;;;2.00;;
12312;SDS011;6220;53.580;9.758;2023-08-07T04:19:06;3.57;;;2.07;;
12312;SDS011;6220;53.580;9.758;2023-08-07T04:21:32;2.23;;;1.70;;
12312;SDS011;6220;53.580;9.758;2023-08-07T04:23:58;4.83;;;2.17;;
12312;SDS011;6220;53.580;9.758;2023-08-07T04:26:25;4.80;;;2.20;;
12312;SDS011;6220;53.580;9.758;2023-08-07T04:28:50;5.43;;;1.90;;
12312;SDS011;6220;53.580;9.758;2023-08-07T04:31:16;3.63;;;2.10;;
12312;SDS011;6220;53.580;9.758;2023-08-07T04:33:41;7.20;;;2.13;;
12312;SDS011;6220;53.580;9.758;2023-08-07T04:36:06;5.13;;;2.13;;
12312;SDS011;6220;53.580;9.758;2023-08-07T04:38:32;5.37;;;2.43;;
12312;SDS011;6220;53.580;9.758;2023-08-07T04:40:57;5.90;;;2.40;;
12312;SDS011;6220;53.580;9.758;2023-08-07T04:43:22;4.03;;;1.97;;
12312;SDS011;6220;53.580;9.758;2023-08-07T04:45:48;7.23;;;2.60;;
12312;SDS011;6220;53.580;9.758;2023-08-07T04:48:14;3.87;;;1.97;;
12312;SDS011;6220;53.580;9.758;2023-08-07T04:50:40;3.53;;;1.90;;
12312;SDS011;6220;53.580;9.758;2023-08-07T04:53:06;5.47;;;2.30;;
12312;SDS011;6220;53.580;9.758;2023-08-07T04:55:32;5.40;;;2.23;;
12312;SDS011;6220;53.580;9.758;2023-08-07T04:57:57;4.50;;;2.30;;
12312;SDS011;6220;53.580;9.758;2023-08-07T05:00:24;6.37;;;2.63;;
12312;SDS011;6220;53.580;9.758;2023-08-07T05:02:49;6.07;;;2.43;;
12312;SDS011;6220;53.580;9.758;2023-08-07T05:05:15;5.13;;;2.23;;
12312;SDS011;6220;53.580;9.758;2023-08-07T05:07:41;3.67;;;2.10;;
12312;SDS011;6220;53.580;9.758;2023-08-07T05:10:08;5.87;;;2.50;;
12312;SDS011;6220;53.580;9.758;2023-08-07T05:12:34;4.93;;;2.47;;
12312;SDS011;6220;53.580;9.758;2023-08-07T05:15:00;5.97;;;2.30;;
12312;SDS011;6220;53.580;9.758;2023-08-07T05:17:25;5.70;;;2.83;;
12312;SDS011;6220;53.580;9.758;2023-08-07T05:19:51;4.67;;;2.37;;
12312;SDS011;6220;53.580;9.758;2023-08-07T05:22:16;4.73;;;2.70;;
12312;SDS011;6220;53.580;9.758;2023-08-07T05:24:42;4.07;;;2.40;;
12312;SDS011;6220;53.580;9.758;2023-08-07T05:27:09;6.73;;;2.53;;
12312;SDS011;6220;53.580;9.758;2023-08-07T05:29:36;5.87;;;2.50;;
12312;SDS011;6220;53.580;9.758;2023-08-07T05:32:09;6.03;;;2.60;;
12312;SDS011;6220;53.580;9.758;2023-08-07T05:34:35;7.07;;;2.53;;
12312;SDS011;6220;53.580;9.758;2023-08-07T05:37:00;6.00;;;2.80;;
12312;SDS011;6220;53.580;9.758;2023-08-07T05:39:26;6.07;;;2.83;;
12312;SDS011;6220;53.580;9.758;2023-08-07T05:41:51;8.07;;;2.90;;
12312;SDS011;6220;53.580;9.758;2023-08-07T05:44:18;13.73;;;3.57;;
12312;SDS011;6220;53.580;9.758;2023-08-07T05:46:44;6.23;;;2.50;;
12312;SDS011;6220;53.580;9.758;2023-08-07T05:49:09;5.23;;;2.60;;
12312;SDS011;6220;53.580;9.758;2023-08-07T05:51:34;6.43;;;2.20;;
12312;SDS011;6220;53.580;9.758;2023-08-07T05:54:00;7.93;;;2.50;;
12312;SDS011;6220;53.580;9.758;2023-08-07T05:56:25;6.40;;;2.70;;
12312;SDS011;6220;53.580;9.758;2023-08-07T05:58:50;6.43;;;2.43;;
12312;SDS011;6220;53.580;9.758;2023-08-07T06:01:16;7.23;;;2.80;;
12312;SDS011;6220;53.580;9.758;2023-08-07T06:03:42;10.03;;;2.50;;
12312;SDS011;6220;53.580;9.758;2023-08-07T06:06:08;7.47;;;2.70;;
12312;SDS011;6220;53.580;9.758;2023-08-07T06:08:33;8.07;;;2.57;;
12312;SDS011;6220;53.580;9.758;2023-08-07T06:10:59;9.07;;;2.77;;
12312;SDS011;6220;53.580;9.758;2023-08-07T06:13:28;6.93;;;2.80;;
12312;SDS011;6220;53.580;9.758;2023-08-07T06:15:54;8.93;;;3.00;;
12312;SDS011;6220;53.580;9.758;2023-08-07T06:18:19;8.27;;;2.73;;
12312;SDS011;6220;53.580;9.758;2023-08-07T06:20:45;12.03;;;3.37;;
12312;SDS011;6220;53.580;9.758;2023-08-07T06:23:10;12.67;;;3.17;;
12312;SDS011;6220;53.580;9.758;2023-08-07T06:25:37;6.53;;;3.10;;
12312;SDS011;6220;53.580;9.758;2023-08-07T06:28:02;10.57;;;3.30;;
12312;SDS011;6220;53.580;9.758;2023-08-07T06:30:27;9.57;;;2.90;;
12312;SDS011;6220;53.580;9.758;2023-08-07T06:32:53;12.63;;;3.53;;
12312;SDS011;6220;53.580;9.758;2023-08-07T06:35:18;10.73;;;3.03;;
12312;SDS011;6220;53.580;9.758;2023-08-07T06:37:44;10.83;;;3.20;;
12312;SDS011;6220;53.580;9.758;2023-08-07T06:40:09;10.63;;;3.80;;
12312;SDS011;6220;53.580;9.758;2023-08-07T06:42:35;11.07;;;3.53;;
12312;SDS011;6220;53.580;9.758;2023-08-07T06:45:01;11.67;;;3.70;;
12312;SDS011;6220;53.580;9.758;2023-08-07T06:47:26;12.40;;;3.80;;
12312;SDS011;6220;53.580;9.758;2023-08-07T06:49:51;12.00;;;3.40;;
12312;SDS011;6220;53.580;9.758;2023-08-07T06:52:17;9.40;;;3.77;;
12312;SDS011;6220;53.580;9.758;2023-08-07T06:54:43;10.53;;;3.07;;
12312;SDS011;6220;53.580;9.758;2023-08-07T06:57:08;12.70;;;3.77;;
12312;SDS011;6220;53.580;9.758;2023-08-07T06:59:34;11.13;;;3.57;;
12312;SDS011;6220;53.580;9.758;2023-08-07T07:01:59;9.40;;;3.70;;
12312;SDS011;6220;53.580;9.758;2023-08-07T07:04:24;15.33;;;3.87;;
12312;SDS011;6220;53.580;9.758;2023-08-07T07:06:50;13.37;;;3.63;;
12312;SDS011;6220;53.580;9.758;2023-08-07T07:09:15;15.73;;;3.93;;
12312;SDS011;6220;53.580;9.758;2023-08-07T07:11:42;14.03;;;3.77;;
12312;SDS011;6220;53.580;9.758;2023-08-07T07:14:08;11.40;;;4.00;;
12312;SDS011;6220;53.580;9.758;2023-08-07T07:16:36;14.47;;;3.90;;
12312;SDS011;6220;53.580;9.758;2023-08-07T07:19:02;13.50;;;4.30;;
12312;SDS011;6220;53.580;9.758;2023-08-07T07:21:28;10.30;;;4.07;;
12312;SDS011;6220;53.580;9.758;2023-08-07T07:23:53;13.00;;;4.20;;
12312;SDS011;6220;53.580;9.758;2023-08-07T07:26:18;9.67;;;3.63;;
12312;SDS011;6220;53.580;9.758;2023-08-07T07:28:44;10.20;;;3.73;;
12312;SDS011;6220;53.580;9.758;2023-08-07T07:31:10;11.07;;;3.73;;
12312;SDS011;6220;53.580;9.758;2023-08-07T07:33:36;11.33;;;3.70;;
12312;SDS011;6220;53.580;9.758;2023-08-07T07:36:05;12.33;;;3.87;;
12312;SDS011;6220;53.580;9.758;2023-08-07T07:38:31;10.27;;;4.07;;
12312;SDS011;6220;53.580;9.758;2023-08-07T07:40:56;14.60;;;3.73;;
12312;SDS011;6220;53.580;9.758;2023-08-07T07:43:22;11.03;;;3.87;;
12312;SDS011;6220;53.580;9.758;2023-08-07T07:45:48;10.70;;;4.40;;
12312;SDS011;6220;53.580;9.758;2023-08-07T07:48:14;10.40;;;4.10;;
12312;SDS011;6220;53.580;9.758;2023-08-07T07:50:41;7.97;;;3.27;;
12312;SDS011;6220;53.580;9.758;2023-08-07T07:53:06;9.87;;;3.60;;
12312;SDS011;6220;53.580;9.758;2023-08-07T07:55:32;10.73;;;3.60;;
12312;SDS011;6220;53.580;9.758;2023-08-07T07:57:59;12.13;;;3.50;;
12312;SDS011;6220;53.580;9.758;2023-08-07T08:00:24;9.47;;;3.73;;
12312;SDS011;6220;53.580;9.758;2023-08-07T08:02:54;13.20;;;4.20;;
12312;SDS011;6220;53.580;9.758;2023-08-07T08:05:19;13.23;;;3.93;;
12312;SDS011;6220;53.580;9.758;2023-08-07T08:07:45;15.57;;;4.60;;
12312;SDS011;6220;53.580;9.758;2023-08-07T08:10:10;14.90;;;4.53;;
12312;SDS011;6220;53.580;9.758;2023-08-07T08:12:36;12.07;;;4.07;;
12312;SDS011;6220;53.580;9.758;2023-08-07T08:15:02;13.67;;;4.30;;
12312;SDS011;6220;53.580;9.758;2023-08-07T08:17:28;9.93;;;3.47;;
12312;SDS011;6220;53.580;9.758;2023-08-07T08:19:54;14.50;;;4.87;;
12312;SDS011;6220;53.580;9.758;2023-08-07T08:22:22;11.37;;;3.93;;
12312;SDS011;6220;53.580;9.758;2023-08-07T08:24:47;13.50;;;4.47;;
12312;SDS011;6220;53.580;9.758;2023-08-07T08:27:13;12.87;;;4.00;;
12312;SDS011;6220;53.580;9.758;2023-08-07T08:29:38;18.47;;;4.97;;
12312;SDS011;6220;53.580;9.758;2023-08-07T08:32:04;19.27;;;4.90;;
12312;SDS011;6220;53.580;9.758;2023-08-07T08:34:29;15.73;;;4.67;;
12312;SDS011;6220;53.580;9.758;2023-08-07T08:36:55;14.80;;;4.47;;
12312;SDS011;6220;53.580;9.758;2023-08-07T08:39:20;16.43;;;4.00;;
12312;SDS011;6220;53.580;9.758;2023-08-07T08:41:46;12.40;;;4.10;;
12312;SDS011;6220;53.580;9.758;2023-08-07T08:44:12;12.83;;;4.27;;
12312;SDS011;6220;53.580;9.758;2023-08-07T08:46:38;11.70;;;3.47;;
12312;SDS011;6220;53.580;9.758;2023-08-07T08:49:06;11.93;;;4.20;;
12312;SDS011;6220;53.580;9.758;2023-08-07T08:51:33;15.03;;;3.70;;
12312;SDS011;6220;53.580;9.758;2023-08-07T08:53:59;9.53;;;3.63;;
12312;SDS011;6220;53.580;9.758;2023-08-07T08:56:27;13.57;;;3.80;;
12312;SDS011;6220;53.580;9.758;2023-08-07T08:58:52;10.07;;;4.00;;
12312;SDS011;6220;53.580;9.758;2023-08-07T09:01:18;10.70;;;3.53;;
12312;SDS011;6220;53.580;9.758;2023-08-07T09:03:44;9.73;;;3.60;;
12312;SDS011;6220;53.580;9.758;2023-08-07T09:06:10;14.07;;;4.30;;
12312;SDS011;6220;53.580;9.758;2023-08-07T09:08:37;13.50;;;3.97;;
12312;SDS011;6220;53.580;9.758;2023-08-07T09:11:06;11.43;;;3.67;;
12312;SDS011;6220;53.580;9.758;2023-08-07T09:13:33;11.20;;;4.03;;
12312;SDS011;6220;53.580;9.758;2023-08-07T09:15:58;10.97;;;3.80;;
12312;SDS011;6220;53.580;9.758;2023-08-07T09:18:25;11.23;;;3.23;;
12312;SDS011;6220;53.580;9.758;2023-08-07T09:20:51;9.93;;;3.73;;
12312;SDS011;6220;53.580;9.758;2023-08-07T09:23:16;10.63;;;3.70;;
12312;SDS011;6220;53.580;9.758;2023-08-07T09:25:42;10.73;;;3.73;;
12312;SDS011;6220;53.580;9.758;2023-08-07T09:28:08;8.67;;;3.17;;
12312;SDS011;6220;53.580;9.758;2023-08-07T09:30:35;10.20;;;3.47;;
12312;SDS011;6220;53.580;9.758;2023-08-07T09:33:02;8.37;;;3.70;;
12312;SDS011;6220;53.580;9.758;2023-08-07T09:35:28;8.93;;;2.67;;
12312;SDS011;6220;53.580;9.758;2023-08-07T09:37:56;13.00;;;3.17;;
12312;SDS011;6220;53.580;9.758;2023-08-07T09:40:21;8.87;;;3.20;;
12312;SDS011;6220;53.580;9.758;2023-08-07T09:42:54;12.63;;;3.63;;
12312;SDS011;6220;53.580;9.758;2023-08-07T09:48:01;12.83;;;4.10;;
12312;SDS011;6220;53.580;9.758;2023-08-07T09:50:28;10.90;;;3.37;;
12312;SDS011;6220;53.580;9.758;2023-08-07T09:52:54;12.83;;;3.40;;
12312;SDS011;6220;53.580;9.758;2023-08-07T09:55:27;8.87;;;3.17;;
12312;SDS011;6220;53.580;9.758;2023-08-07T09:57:52;14.93;;;4.10;;
12312;SDS011;6220;53.580;9.758;2023-08-07T10:00:19;15.77;;;3.80;;
12312;SDS011;6220;53.580;9.758;2023-08-07T10:02:45;7.10;;;3.20;;
12312;SDS011;6220;53.580;9.758;2023-08-07T10:05:12;13.33;;;4.07;;
12312;SDS011;6220;53.580;9.758;2023-08-07T10:07:40;9.63;;;3.50;;
12312;SDS011;6220;53.580;9.758;2023-08-07T10:10:07;10.63;;;3.37;;
12312;SDS011;6220;53.580;9.758;2023-08-07T10:12:33;7.97;;;3.27;;
12312;SDS011;6220;53.580;9.758;2023-08-07T10:14:59;8.37;;;3.07;;
12312;SDS011;6220;53.580;9.758;2023-08-07T10:17:25;12.23;;;3.30;;
12312;SDS011;6220;53.580;9.758;2023-08-07T10:19:51;6.40;;;2.90;;
12312;SDS011;6220;53.580;9.758;2023-08-07T10:22:18;13.47;;;3.37;;
12312;SDS011;6220;53.580;9.758;2023-08-07T10:24:44;9.90;;;2.80;;
12312;SDS011;6220;53.580;9.758;2023-08-07T10:27:13;6.93;;;2.70;;
12312;SDS011;6220;53.580;9.758;2023-08-07T10:29:40;16.43;;;3.20;;
12312;SDS011;6220;53.580;9.758;2023-08-07T10:32:06;10.50;;;3.23;;
12312;SDS011;6220;53.580;9.758;2023-08-07T10:34:33;10.33;;;3.20;;
12312;SDS011;6220;53.580;9.758;2023-08-07T10:36:58;7.83;;;3.17;;
12312;SDS011;6220;53.580;9.758;2023-08-07T10:39:24;11.07;;;3.47;;
12312;SDS011;6220;53.580;9.758;2023-08-07T10:41:52;11.07;;;3.60;;
12312;SDS011;6220;53.580;9.758;2023-08-07T10:44:20;8.73;;;2.80;;
12312;SDS011;6220;53.580;9.758;2023-08-07T10:46:53;6.93;;;2.90;;
12312;SDS011;6220;53.580;9.758;2023-08-07T10:49:36;11.00;;;3.07;;
12312;SDS011;6220;53.580;9.758;2023-08-07T10:52:12;10.63;;;3.47;;
12312;SDS011;6220;53.580;9.758;2023-08-07T10:54:40;8.60;;;3.23;;
12312;SDS011;6220;53.580;9.758;2023-08-07T10:57:11;10.20;;;3.40;;
12312;SDS011;6220;53.580;9.758;2023-08-07T11:02:24;9.17;;;2.97;;
12312;SDS011;6220;53.580;9.758;2023-08-07T11:04:51;10.53;;;3.23;;
12312;SDS011;6220;53.580;9.758;2023-08-07T11:07:26;10.83;;;3.50;;
12312;SDS011;6220;53.580;9.758;2023-08-07T11:09:52;5.23;;;2.47;;
12312;SDS011;6220;53.580;9.758;2023-08-07T11:12:18;15.10;;;3.60;;
12312;SDS011;6220;53.580;9.758;2023-08-07T11:14:44;11.20;;;3.57;;
12312;SDS011;6220;53.580;9.758;2023-08-07T11:17:09;10.03;;;3.07;;
12312;SDS011;6220;53.580;9.758;2023-08-07T11:19:34;9.37;;;2.93;;
12312;SDS011;6220;53.580;9.758;2023-08-07T11:22:00;8.73;;;3.10;;
12312;SDS011;6220;53.580;9.758;2023-08-07T11:24:26;10.10;;;3.57;;
12312;SDS011;6220;53.580;9.758;2023-08-07T11:26:52;10.33;;;3.30;;
12312;SDS011;6220;53.580;9.758;2023-08-07T11:29:18;7.17;;;2.77;;
12312;SDS011;6220;53.580;9.758;2023-08-07T11:31:43;11.33;;;3.73;;
12312;SDS011;6220;53.580;9.758;2023-08-07T11:34:10;8.80;;;2.90;;
12312;SDS011;6220;53.580;9.758;2023-08-07T11:36:40;12.23;;;3.60;;
12312;SDS011;6220;53.580;9.758;2023-08-07T11:39:09;12.30;;;2.77;;
12312;SDS011;6220;53.580;9.758;2023-08-07T11:41:34;8.50;;;2.67;;
12312;SDS011;6220;53.580;9.758;2023-08-07T11:44:00;12.30;;;2.97;;
12312;SDS011;6220;53.580;9.758;2023-08-07T11:46:25;12.43;;;3.33;;
12312;SDS011;6220;53.580;9.758;2023-08-07T11:48:51;12.30;;;3.60;;
12312;SDS011;6220;53.580;9.758;2023-08-07T11:51:17;10.57;;;3.73;;
12312;SDS011;6220;53.580;9.758;2023-08-07T11:53:42;10.70;;;3.50;;
12312;SDS011;6220;53.580;9.758;2023-08-07T11:56:08;10.23;;;3.20;;
12312;SDS011;6220;53.580;9.758;2023-08-07T11:58:39;8.40;;;3.67;;
12312;SDS011;6220;53.580;9.758;2023-08-07T12:01:06;15.47;;;4.07;;
12312;SDS011;6220;53.580;9.758;2023-08-07T12:03:35;12.83;;;3.57;;
12312;SDS011;6220;53.580;9.758;2023-08-07T12:06:05;11.70;;;3.90;;
12312;SDS011;6220;53.580;9.758;2023-08-07T12:08:38;10.97;;;3.50;;
12312;SDS011;6220;53.580;9.758;2023-08-07T12:11:05;8.83;;;3.10;;
12312;SDS011;6220;53.580;9.758;2023-08-07T12:13:32;8.50;;;3.77;;
12312;SDS011;6220;53.580;9.758;2023-08-07T12:16:00;13.70;;;3.17;;
12312;SDS011;6220;53.580;9.758;2023-08-07T12:18:26;8.40;;;2.77;;
12312;SDS011;6220;53.580;9.758;2023-08-07T12:20:53;12.10;;;3.10;;
12312;SDS011;6220;53.580;9.758;2023-08-07T12:23:22;10.77;;;3.73;;
12312;SDS011;6220;53.580;9.758;2023-08-07T12:25:47;14.63;;;3.63;;
12312;SDS011;6220;53.580;9.758;2023-08-07T12:28:13;8.43;;;3.30;;
12312;SDS011;6220;53.580;9.758;2023-08-07T12:30:40;13.53;;;3.87;;
12312;SDS011;6220;53.580;9.758;2023-08-07T12:33:05;8.23;;;3.23;;
12312;SDS011;6220;53.580;9.758;2023-08-07T12:35:32;11.03;;;3.53;;
12312;SDS011;6220;53.580;9.758;2023-08-07T12:37:57;10.13;;;3.53;;
12312;SDS011;6220;53.580;9.758;2023-08-07T12:40:23;11.87;;;3.73;;
12312;SDS011;6220;53.580;9.758;2023-08-07T12:42:49;7.50;;;3.90;;
12312;SDS011;6220;53.580;9.758;2023-08-07T12:45:15;12.87;;;3.97;;
12312;SDS011;6220;53.580;9.758;2023-08-07T12:47:41;12.07;;;4.27;;
12312;SDS011;6220;53.580;9.758;2023-08-07T12:50:07;10.30;;;3.53;;
12312;SDS011;6220;53.580;9.758;2023-08-07T12:52:33;13.00;;;3.67;;
12312;SDS011;6220;53.580;9.758;2023-08-07T12:54:59;14.10;;;3.53;;
12312;SDS011;6220;53.580;9.758;2023-08-07T12:57:24;9.93;;;3.17;;
12312;SDS011;6220;53.580;9.758;2023-08-07T12:59:50;8.13;;;2.90;;
12312;SDS011;6220;53.580;9.758;2023-08-07T13:02:15;9.53;;;3.03;;
12312;SDS011;6220;53.580;9.758;2023-08-07T13:04:42;8.93;;;3.00;;
12312;SDS011;6220;53.580;9.758;2023-08-07T13:07:07;12.03;;;3.77;;
12312;SDS011;6220;53.580;9.758;2023-08-07T13:09:32;7.83;;;3.10;;
12312;SDS011;6220;53.580;9.758;2023-08-07T13:11:58;9.33;;;2.90;;
12312;SDS011;6220;53.580;9.758;2023-08-07T13:14:23;8.37;;;3.40;;
12312;SDS011;6220;53.580;9.758;2023-08-07T13:16:49;7.83;;;2.70;;
12312;SDS011;6220;53.580;9.758;2023-08-07T13:19:15;13.03;;;3.07;;
12312;SDS011;6220;53.580;9.758;2023-08-07T13:21:41;8.87;;;3.10;;
12312;SDS011;6220;53.580;9.758;2023-08-07T13:24:06;10.60;;;3.70;;
12312;SDS011;6220;53.580;9.758;2023-08-07T13:26:32;7.50;;;3.17;;
12312;SDS011;6220;53.580;9.758;2023-08-07T13:28:57;8.33;;;3.40;;
12312;SDS011;6220;53.580;9.758;2023-08-07T13:31:24;7.67;;;2.70;;
12312;SDS011;6220;53.580;9.758;2023-08-07T13:33:49;5.87;;;2.90;;
12312;SDS011;6220;53.580;9.758;2023-08-07T13:36:14;9.27;;;3.60;;
12312;SDS011;6220;53.580;9.758;2023-08-07T13:38:40;10.33;;;3.23;;
12312;SDS011;6220;53.580;9.758;2023-08-07T13:41:05;8.73;;;2.87;;
12312;SDS011;6220;53.580;9.758;2023-08-07T13:43:32;10.97;;;3.37;;
12312;SDS011;6220;53.580;9.758;2023-08-07T13:45:58;10.47;;;3.13;;
12312;SDS011;6220;53.580;9.758;2023-08-07T13:48:23;8.10;;;2.93;;
12312;SDS011;6220;53.580;9.758;2023-08-07T13:50:52;8.73;;;3.43;;
12312;SDS011;6220;53.580;9.758;2023-08-07T13:53:17;8.67;;;3.47;;
12312;SDS011;6220;53.580;9.758;2023-08-07T13:55:44;7.13;;;2.90;;
12312;SDS011;6220;53.580;9.758;2023-08-07T13:58:10;7.87;;;3.30;;
12312;SDS011;6220;53.580;9.758;2023-08-07T14:00:36;12.47;;;3.00;;
12312;SDS011;6220;53.580;9.758;2023-08-07T14:03:01;9.87;;;3.10;;
12312;SDS011;6220;53.580;9.758;2023-08-07T14:05:36;9.23;;;3.47;;
12312;SDS011;6220;53.580;9.758;2023-08-07T14:08:03;8.43;;;3.10;;
12312;SDS011;6220;53.580;9.758;2023-08-07T14:10:29;12.83;;;3.30;;
12312;SDS011;6220;53.580;9.758;2023-08-07T14:12:54;10.30;;;3.70;;
12312;SDS011;6220;53.580;9.758;2023-08-07T14:15:20;12.37;;;3.90;;
12312;SDS011;6220;53.580;9.758;2023-08-07T14:17:45;9.43;;;3.47;;
12312;SDS011;6220;53.580;9.758;2023-08-07T14:20:11;13.30;;;3.63;;
12312;SDS011;6220;53.580;9.758;2023-08-07T14:22:36;10.53;;;3.70;;
12312;SDS011;6220;53.580;9.758;2023-08-07T14:25:03;9.47;;;3.67;;
12312;SDS011;6220;53.580;9.758;2023-08-07T14:27:29;9.27;;;3.90;;
12312;SDS011;6220;53.580;9.758;2023-08-07T14:29:55;8.93;;;3.40;;
12312;SDS011;6220;53.580;9.758;2023-08-07T14:32:20;10.20;;;3.90;;
12312;SDS011;6220;53.580;9.758;2023-08-07T14:34:48;9.73;;;4.00;;
12312;SDS011;6220;53.580;9.758;2023-08-07T14:37:14;7.00;;;2.73;;
12312;SDS011;6220;53.580;9.758;2023-08-07T14:39:39;8.27;;;3.13;;
12312;SDS011;6220;53.580;9.758;2023-08-07T14:42:05;9.20;;;2.77;;
12312;SDS011;6220;53.580;9.758;2023-08-07T14:44:32;12.20;;;3.40;;
12312;SDS011;6220;53.580;9.758;2023-08-07T14:46:57;13.63;;;3.80;;
12312;SDS011;6220;53.580;9.758;2023-08-07T14:49:23;8.70;;;3.70;;
12312;SDS011;6220;53.580;9.758;2023-08-07T14:51:48;9.33;;;3.03;;
12312;SDS011;6220;53.580;9.758;2023-08-07T14:54:13;8.73;;;3.63;;
12312;SDS011;6220;53.580;9.758;2023-08-07T14:56:39;6.87;;;3.13;;
12312;SDS011;6220;53.580;9.758;2023-08-07T14:59:04;7.67;;;3.40;;
12312;SDS011;6220;53.580;9.758;2023-08-07T15:01:29;9.70;;;3.70;;